Terminal Aerodrome Forecast
Issued by NWS

Current Version | Previous Version | Text Only | Print | Product List | Glossary On
Versions: 1 2 3 4 5 6 7 8 9 10 11 12 13 14 15 16 17 18 19 20
000
FTUS43 KGRR 302300
TAFAZO
TAF
KAZO 302340Z 0100/0124 03006KT P6SM OVC025
     FM011100 08003KT 5SM BR OVC008
     FM011400 12007KT P6SM BKN025=

USA.gov is the U.S. government's official web portal to all federal, state and local government web resources and services.